sensor_id;sensor_type;location;lat;lon;timestamp;P1;durP1;ratioP1;P2;durP2;ratioP2
4198;SDS011;2113;50.946;14.610;2023-08-31T00:00:26;6.80;;;5.50;;
4198;SDS011;2113;50.946;14.610;2023-08-31T00:02:55;7.90;;;6.32;;
4198;SDS011;2113;50.946;14.610;2023-08-31T00:05:24;9.23;;;5.95;;
4198;SDS011;2113;50.946;14.610;2023-08-31T00:07:55;6.97;;;5.50;;
4198;SDS011;2113;50.946;14.610;2023-08-31T00:10:24;6.80;;;5.10;;
4198;SDS011;2113;50.946;14.610;2023-08-31T00:12:52;10.82;;;5.82;;
4198;SDS011;2113;50.946;14.610;2023-08-31T00:15:23;7.20;;;5.85;;
4198;SDS011;2113;50.946;14.610;2023-08-31T00:17:52;8.10;;;5.50;;
4198;SDS011;2113;50.946;14.610;2023-08-31T00:20:20;10.95;;;6.60;;
4198;SDS011;2113;50.946;14.610;2023-08-31T00:22:49;8.27;;;6.43;;
4198;SDS011;2113;50.946;14.610;2023-08-31T00:25:17;11.60;;;6.50;;
4198;SDS011;2113;50.946;14.610;2023-08-31T00:27:46;8.70;;;6.05;;
4198;SDS011;2113;50.946;14.610;2023-08-31T00:30:15;7.43;;;5.53;;
4198;SDS011;2113;50.946;14.610;2023-08-31T00:32:45;9.90;;;6.50;;
4198;SDS011;2113;50.946;14.610;2023-08-31T00:35:15;12.18;;;6.85;;
4198;SDS011;2113;50.946;14.610;2023-08-31T00:37:44;8.63;;;6.28;;
4198;SDS011;2113;50.946;14.610;2023-08-31T00:40:13;10.40;;;6.10;;
4198;SDS011;2113;50.946;14.610;2023-08-31T00:42:42;11.18;;;7.28;;
4198;SDS011;2113;50.946;14.610;2023-08-31T00:45:10;9.43;;;6.20;;
4198;SDS011;2113;50.946;14.610;2023-08-31T00:47:40;9.65;;;5.95;;
4198;SDS011;2113;50.946;14.610;2023-08-31T00:50:11;9.20;;;5.57;;
4198;SDS011;2113;50.946;14.610;2023-08-31T00:52:40;8.43;;;6.30;;
4198;SDS011;2113;50.946;14.610;2023-08-31T00:55:11;8.00;;;5.35;;
4198;SDS011;2113;50.946;14.610;2023-08-31T00:57:40;11.98;;;6.43;;
4198;SDS011;2113;50.946;14.610;2023-08-31T01:00:09;9.13;;;6.50;;
4198;SDS011;2113;50.946;14.610;2023-08-31T01:02:43;8.02;;;5.53;;
4198;SDS011;2113;50.946;14.610;2023-08-31T01:05:25;8.75;;;6.18;;
4198;SDS011;2113;50.946;14.610;2023-08-31T01:08:04;10.85;;;6.20;;
4198;SDS011;2113;50.946;14.610;2023-08-31T01:10:44;8.02;;;6.20;;
4198;SDS011;2113;50.946;14.610;2023-08-31T01:13:24;8.85;;;6.70;;
4198;SDS011;2113;50.946;14.610;2023-08-31T01:15:54;9.35;;;6.60;;
4198;SDS011;2113;50.946;14.610;2023-08-31T01:18:30;10.13;;;7.30;;
4198;SDS011;2113;50.946;14.610;2023-08-31T01:21:09;10.70;;;7.28;;
4198;SDS011;2113;50.946;14.610;2023-08-31T01:23:51;9.43;;;7.07;;
4198;SDS011;2113;50.946;14.610;2023-08-31T01:26:20;10.27;;;7.10;;
4198;SDS011;2113;50.946;14.610;2023-08-31T01:28:50;9.77;;;7.50;;
4198;SDS011;2113;50.946;14.610;2023-08-31T01:31:20;10.93;;;7.50;;
4198;SDS011;2113;50.946;14.610;2023-08-31T01:34:12;11.35;;;8.63;;
4198;SDS011;2113;50.946;14.610;2023-08-31T01:38:24;8.30;;;6.03;;
4198;SDS011;2113;50.946;14.610;2023-08-31T01:41:03;9.75;;;7.28;;
4198;SDS011;2113;50.946;14.610;2023-08-31T01:43:35;12.48;;;9.52;;
4198;SDS011;2113;50.946;14.610;2023-08-31T01:46:05;10.88;;;7.97;;
4198;SDS011;2113;50.946;14.610;2023-08-31T01:48:38;9.70;;;7.35;;
4198;SDS011;2113;50.946;14.610;2023-08-31T01:51:10;14.45;;;8.73;;
4198;SDS011;2113;50.946;14.610;2023-08-31T01:53:42;10.52;;;8.70;;
4198;SDS011;2113;50.946;14.610;2023-08-31T01:56:12;12.23;;;8.60;;
4198;SDS011;2113;50.946;14.610;2023-08-31T01:58:42;11.90;;;8.65;;
4198;SDS011;2113;50.946;14.610;2023-08-31T02:01:10;10.10;;;7.53;;
4198;SDS011;2113;50.946;14.610;2023-08-31T02:03:39;11.00;;;7.85;;
4198;SDS011;2113;50.946;14.610;2023-08-31T02:06:08;8.50;;;6.93;;
4198;SDS011;2113;50.946;14.610;2023-08-31T02:08:39;13.43;;;8.75;;
4198;SDS011;2113;50.946;14.610;2023-08-31T02:11:13;10.48;;;8.25;;
4198;SDS011;2113;50.946;14.610;2023-08-31T02:13:43;9.70;;;8.10;;
4198;SDS011;2113;50.946;14.610;2023-08-31T02:16:12;10.27;;;7.93;;
4198;SDS011;2113;50.946;14.610;2023-08-31T02:18:40;9.68;;;7.40;;
4198;SDS011;2113;50.946;14.610;2023-08-31T02:21:09;20.90;;;8.00;;
4198;SDS011;2113;50.946;14.610;2023-08-31T02:23:40;10.43;;;7.38;;
4198;SDS011;2113;50.946;14.610;2023-08-31T02:26:10;8.82;;;7.30;;
4198;SDS011;2113;50.946;14.610;2023-08-31T02:28:40;9.70;;;8.40;;
4198;SDS011;2113;50.946;14.610;2023-08-31T02:31:10;10.10;;;7.63;;
4198;SDS011;2113;50.946;14.610;2023-08-31T02:33:39;9.02;;;6.95;;
4198;SDS011;2113;50.946;14.610;2023-08-31T02:36:07;11.45;;;7.90;;
4198;SDS011;2113;50.946;14.610;2023-08-31T02:38:36;9.18;;;7.38;;
4198;SDS011;2113;50.946;14.610;2023-08-31T02:41:05;9.43;;;7.30;;
4198;SDS011;2113;50.946;14.610;2023-08-31T02:43:35;11.90;;;7.10;;
4198;SDS011;2113;50.946;14.610;2023-08-31T02:46:06;9.93;;;7.70;;
4198;SDS011;2113;50.946;14.610;2023-08-31T02:48:34;10.32;;;7.40;;
4198;SDS011;2113;50.946;14.610;2023-08-31T02:51:03;9.52;;;7.10;;
4198;SDS011;2113;50.946;14.610;2023-08-31T02:53:32;11.65;;;7.78;;
4198;SDS011;2113;50.946;14.610;2023-08-31T02:56:01;8.88;;;6.30;;
4198;SDS011;2113;50.946;14.610;2023-08-31T02:58:30;10.68;;;6.07;;
4198;SDS011;2113;50.946;14.610;2023-08-31T03:01:10;11.57;;;7.80;;
4198;SDS011;2113;50.946;14.610;2023-08-31T03:03:43;10.45;;;7.82;;
4198;SDS011;2113;50.946;14.610;2023-08-31T03:06:13;10.80;;;7.72;;
4198;SDS011;2113;50.946;14.610;2023-08-31T03:08:42;11.93;;;8.20;;
4198;SDS011;2113;50.946;14.610;2023-08-31T03:11:11;12.13;;;7.00;;
4198;SDS011;2113;50.946;14.610;2023-08-31T03:13:41;10.85;;;7.65;;
4198;SDS011;2113;50.946;14.610;2023-08-31T03:16:12;9.55;;;6.97;;
4198;SDS011;2113;50.946;14.610;2023-08-31T03:18:41;16.50;;;11.32;;
4198;SDS011;2113;50.946;14.610;2023-08-31T03:21:10;16.85;;;12.75;;
4198;SDS011;2113;50.946;14.610;2023-08-31T03:23:38;16.90;;;12.48;;
4198;SDS011;2113;50.946;14.610;2023-08-31T03:26:07;17.73;;;12.93;;
4198;SDS011;2113;50.946;14.610;2023-08-31T03:28:36;19.88;;;12.85;;
4198;SDS011;2113;50.946;14.610;2023-08-31T03:31:07;19.95;;;14.65;;
4198;SDS011;2113;50.946;14.610;2023-08-31T03:33:37;24.85;;;15.60;;
4198;SDS011;2113;50.946;14.610;2023-08-31T03:36:06;21.67;;;15.05;;
4198;SDS011;2113;50.946;14.610;2023-08-31T03:38:35;21.40;;;15.20;;
4198;SDS011;2113;50.946;14.610;2023-08-31T03:41:05;25.95;;;15.98;;
4198;SDS011;2113;50.946;14.610;2023-08-31T03:43:34;21.83;;;15.50;;
4198;SDS011;2113;50.946;14.610;2023-08-31T03:46:02;22.65;;;14.38;;
4198;SDS011;2113;50.946;14.610;2023-08-31T03:48:31;25.95;;;17.20;;
4198;SDS011;2113;50.946;14.610;2023-08-31T03:51:01;27.38;;;16.35;;
4198;SDS011;2113;50.946;14.610;2023-08-31T03:53:30;23.25;;;16.63;;
4198;SDS011;2113;50.946;14.610;2023-08-31T03:55:59;23.50;;;16.55;;
4198;SDS011;2113;50.946;14.610;2023-08-31T03:58:29;24.83;;;14.48;;
4198;SDS011;2113;50.946;14.610;2023-08-31T04:00:58;20.38;;;15.38;;
4198;SDS011;2113;50.946;14.610;2023-08-31T04:03:27;19.90;;;15.60;;
4198;SDS011;2113;50.946;14.610;2023-08-31T04:05:55;22.17;;;16.58;;
4198;SDS011;2113;50.946;14.610;2023-08-31T04:08:26;19.35;;;14.30;;
4198;SDS011;2113;50.946;14.610;2023-08-31T04:10:54;24.27;;;16.67;;
4198;SDS011;2113;50.946;14.610;2023-08-31T04:13:23;22.15;;;15.50;;
4198;SDS011;2113;50.946;14.610;2023-08-31T04:15:52;22.55;;;15.35;;
4198;SDS011;2113;50.946;14.610;2023-08-31T04:18:22;20.55;;;16.05;;
4198;SDS011;2113;50.946;14.610;2023-08-31T04:20:51;22.70;;;15.95;;
4198;SDS011;2113;50.946;14.610;2023-08-31T04:23:20;21.50;;;16.00;;
4198;SDS011;2113;50.946;14.610;2023-08-31T04:25:51;20.35;;;14.75;;
4198;SDS011;2113;50.946;14.610;2023-08-31T04:28:20;24.42;;;15.93;;
4198;SDS011;2113;50.946;14.610;2023-08-31T04:30:48;21.95;;;15.40;;
4198;SDS011;2113;50.946;14.610;2023-08-31T04:33:17;19.88;;;13.48;;
4198;SDS011;2113;50.946;14.610;2023-08-31T04:35:49;19.02;;;13.57;;
4198;SDS011;2113;50.946;14.610;2023-08-31T04:38:17;18.30;;;12.55;;
4198;SDS011;2113;50.946;14.610;2023-08-31T04:40:46;20.52;;;13.98;;
4198;SDS011;2113;50.946;14.610;2023-08-31T04:43:16;24.65;;;13.57;;
4198;SDS011;2113;50.946;14.610;2023-08-31T04:45:45;17.35;;;12.60;;
4198;SDS011;2113;50.946;14.610;2023-08-31T04:48:13;16.77;;;12.90;;
4198;SDS011;2113;50.946;14.610;2023-08-31T04:50:42;16.58;;;12.82;;
4198;SDS011;2113;50.946;14.610;2023-08-31T04:53:11;18.55;;;13.13;;
4198;SDS011;2113;50.946;14.610;2023-08-31T04:55:39;15.30;;;11.73;;
4198;SDS011;2113;50.946;14.610;2023-08-31T04:58:08;17.90;;;12.65;;
4198;SDS011;2113;50.946;14.610;2023-08-31T05:00:38;20.75;;;14.32;;
4198;SDS011;2113;50.946;14.610;2023-08-31T05:03:07;26.40;;;15.85;;
4198;SDS011;2113;50.946;14.610;2023-08-31T05:05:35;25.88;;;16.42;;
4198;SDS011;2113;50.946;14.610;2023-08-31T05:08:04;20.55;;;15.43;;
4198;SDS011;2113;50.946;14.610;2023-08-31T05:10:33;24.15;;;15.95;;
4198;SDS011;2113;50.946;14.610;2023-08-31T05:13:02;19.02;;;14.93;;
4198;SDS011;2113;50.946;14.610;2023-08-31T05:15:31;19.00;;;14.50;;
4198;SDS011;2113;50.946;14.610;2023-08-31T05:18:02;19.90;;;15.32;;
4198;SDS011;2113;50.946;14.610;2023-08-31T05:20:30;19.77;;;14.63;;
4198;SDS011;2113;50.946;14.610;2023-08-31T05:22:59;15.45;;;13.43;;
4198;SDS011;2113;50.946;14.610;2023-08-31T05:25:27;18.25;;;11.80;;
4198;SDS011;2113;50.946;14.610;2023-08-31T05:27:56;17.40;;;12.00;;
4198;SDS011;2113;50.946;14.610;2023-08-31T05:30:24;13.77;;;10.30;;
4198;SDS011;2113;50.946;14.610;2023-08-31T05:32:53;13.50;;;10.10;;
4198;SDS011;2113;50.946;14.610;2023-08-31T05:35:23;12.40;;;9.63;;
4198;SDS011;2113;50.946;14.610;2023-08-31T05:37:52;12.65;;;9.77;;
4198;SDS011;2113;50.946;14.610;2023-08-31T05:40:21;12.57;;;9.80;;
4198;SDS011;2113;50.946;14.610;2023-08-31T05:42:50;12.02;;;8.85;;
4198;SDS011;2113;50.946;14.610;2023-08-31T05:45:18;14.60;;;8.75;;
4198;SDS011;2113;50.946;14.610;2023-08-31T05:47:47;10.35;;;8.50;;
4198;SDS011;2113;50.946;14.610;2023-08-31T05:50:16;11.02;;;8.40;;
4198;SDS011;2113;50.946;14.610;2023-08-31T05:52:46;18.60;;;9.13;;
4198;SDS011;2113;50.946;14.610;2023-08-31T05:55:14;22.95;;;11.63;;
4198;SDS011;2113;50.946;14.610;2023-08-31T05:57:43;15.23;;;11.85;;
4198;SDS011;2113;50.946;14.610;2023-08-31T06:00:11;16.50;;;12.68;;
4198;SDS011;2113;50.946;14.610;2023-08-31T06:02:41;16.60;;;12.38;;
4198;SDS011;2113;50.946;14.610;2023-08-31T06:05:12;20.70;;;14.32;;
4198;SDS011;2113;50.946;14.610;2023-08-31T06:07:43;19.50;;;13.77;;
4198;SDS011;2113;50.946;14.610;2023-08-31T06:10:13;16.60;;;12.43;;
4198;SDS011;2113;50.946;14.610;2023-08-31T06:12:42;14.55;;;10.73;;
4198;SDS011;2113;50.946;14.610;2023-08-31T06:15:10;17.52;;;10.73;;
4198;SDS011;2113;50.946;14.610;2023-08-31T06:17:39;16.88;;;9.50;;
4198;SDS011;2113;50.946;14.610;2023-08-31T06:20:09;9.52;;;7.18;;
4198;SDS011;2113;50.946;14.610;2023-08-31T06:22:38;11.68;;;7.50;;
4198;SDS011;2113;50.946;14.610;2023-08-31T06:25:07;7.50;;;5.97;;
4198;SDS011;2113;50.946;14.610;2023-08-31T06:27:39;7.47;;;5.65;;
4198;SDS011;2113;50.946;14.610;2023-08-31T06:30:08;6.03;;;4.20;;
4198;SDS011;2113;50.946;14.610;2023-08-31T06:32:39;8.40;;;4.95;;
4198;SDS011;2113;50.946;14.610;2023-08-31T06:35:07;7.70;;;4.10;;
4198;SDS011;2113;50.946;14.610;2023-08-31T06:37:36;6.95;;;4.78;;
4198;SDS011;2113;50.946;14.610;2023-08-31T06:40:05;11.02;;;4.25;;
4198;SDS011;2113;50.946;14.610;2023-08-31T06:42:35;7.13;;;4.15;;
4198;SDS011;2113;50.946;14.610;2023-08-31T06:45:07;6.47;;;4.40;;
4198;SDS011;2113;50.946;14.610;2023-08-31T06:47:36;7.47;;;4.45;;
4198;SDS011;2113;50.946;14.610;2023-08-31T06:50:05;6.50;;;4.65;;
4198;SDS011;2113;50.946;14.610;2023-08-31T06:52:34;6.40;;;4.35;;
4198;SDS011;2113;50.946;14.610;2023-08-31T06:55:03;9.55;;;5.53;;
4198;SDS011;2113;50.946;14.610;2023-08-31T06:57:33;8.23;;;4.70;;
4198;SDS011;2113;50.946;14.610;2023-08-31T07:00:04;7.63;;;5.10;;
4198;SDS011;2113;50.946;14.610;2023-08-31T07:02:36;7.25;;;5.53;;
4198;SDS011;2113;50.946;14.610;2023-08-31T07:09:22;7.22;;;4.63;;
4198;SDS011;2113;50.946;14.610;2023-08-31T07:11:51;6.30;;;4.70;;
4198;SDS011;2113;50.946;14.610;2023-08-31T07:14:42;8.15;;;4.80;;
4198;SDS011;2113;50.946;14.610;2023-08-31T07:17:11;6.55;;;4.65;;
4198;SDS011;2113;50.946;14.610;2023-08-31T07:19:40;6.15;;;4.05;;
4198;SDS011;2113;50.946;14.610;2023-08-31T07:22:09;6.60;;;4.60;;
4198;SDS011;2113;50.946;14.610;2023-08-31T07:24:38;4.95;;;3.67;;
4198;SDS011;2113;50.946;14.610;2023-08-31T07:27:07;10.10;;;4.82;;
4198;SDS011;2113;50.946;14.610;2023-08-31T07:29:35;7.65;;;5.25;;
4198;SDS011;2113;50.946;14.610;2023-08-31T07:32:04;5.78;;;4.07;;
4198;SDS011;2113;50.946;14.610;2023-08-31T07:34:33;5.53;;;3.88;;
4198;SDS011;2113;50.946;14.610;2023-08-31T07:37:03;7.13;;;5.18;;
4198;SDS011;2113;50.946;14.610;2023-08-31T07:39:32;9.70;;;4.90;;
4198;SDS011;2113;50.946;14.610;2023-08-31T07:42:01;7.57;;;4.45;;
4198;SDS011;2113;50.946;14.610;2023-08-31T07:44:31;6.57;;;4.70;;
4198;SDS011;2113;50.946;14.610;2023-08-31T07:47:00;8.57;;;4.25;;
4198;SDS011;2113;50.946;14.610;2023-08-31T07:49:29;5.45;;;3.55;;
4198;SDS011;2113;50.946;14.610;2023-08-31T07:51:57;7.90;;;4.22;;
4198;SDS011;2113;50.946;14.610;2023-08-31T07:54:27;6.82;;;4.72;;
4198;SDS011;2113;50.946;14.610;2023-08-31T07:56:56;13.07;;;4.43;;
4198;SDS011;2113;50.946;14.610;2023-08-31T07:59:24;5.57;;;4.00;;
4198;SDS011;2113;50.946;14.610;2023-08-31T08:01:52;9.23;;;5.18;;
4198;SDS011;2113;50.946;14.610;2023-08-31T08:04:21;5.97;;;4.43;;
4198;SDS011;2113;50.946;14.610;2023-08-31T08:06:50;10.65;;;5.05;;
4198;SDS011;2113;50.946;14.610;2023-08-31T08:09:18;9.30;;;4.85;;
4198;SDS011;2113;50.946;14.610;2023-08-31T08:11:48;7.30;;;4.70;;
4198;SDS011;2113;50.946;14.610;2023-08-31T08:14:17;9.30;;;4.88;;
4198;SDS011;2113;50.946;14.610;2023-08-31T08:16:46;6.65;;;3.67;;
4198;SDS011;2113;50.946;14.610;2023-08-31T08:19:20;7.93;;;4.38;;
4198;SDS011;2113;50.946;14.610;2023-08-31T08:21:49;6.63;;;4.28;;
4198;SDS011;2113;50.946;14.610;2023-08-31T08:24:17;6.30;;;4.15;;
4198;SDS011;2113;50.946;14.610;2023-08-31T08:26:46;4.30;;;3.50;;
4198;SDS011;2113;50.946;14.610;2023-08-31T08:29:16;5.35;;;3.63;;
4198;SDS011;2113;50.946;14.610;2023-08-31T08:31:44;10.10;;;4.32;;
4198;SDS011;2113;50.946;14.610;2023-08-31T08:34:13;5.38;;;3.15;;
4198;SDS011;2113;50.946;14.610;2023-08-31T08:36:41;5.78;;;4.18;;
4198;SDS011;2113;50.946;14.610;2023-08-31T08:39:09;6.75;;;4.20;;
4198;SDS011;2113;50.946;14.610;2023-08-31T08:41:38;12.57;;;4.10;;
4198;SDS011;2113;50.946;14.610;2023-08-31T08:44:08;7.47;;;4.38;;
4198;SDS011;2113;50.946;14.610;2023-08-31T08:46:39;7.38;;;5.00;;
4198;SDS011;2113;50.946;14.610;2023-08-31T08:49:08;7.78;;;4.38;;
4198;SDS011;2113;50.946;14.610;2023-08-31T08:51:37;5.28;;;4.05;;
4198;SDS011;2113;50.946;14.610;2023-08-31T08:54:06;5.90;;;3.53;;
4198;SDS011;2113;50.946;14.610;2023-08-31T08:56:35;6.43;;;4.10;;
4198;SDS011;2113;50.946;14.610;2023-08-31T08:59:05;5.85;;;3.47;;
4198;SDS011;2113;50.946;14.610;2023-08-31T09:01:33;5.18;;;2.95;;
4198;SDS011;2113;50.946;14.610;2023-08-31T09:04:06;7.22;;;3.47;;
4198;SDS011;2113;50.946;14.610;2023-08-31T09:06:34;5.25;;;3.35;;
4198;SDS011;2113;50.946;14.610;2023-08-31T09:09:04;7.93;;;3.50;;
4198;SDS011;2113;50.946;14.610;2023-08-31T09:11:32;5.78;;;2.90;;
4198;SDS011;2113;50.946;14.610;2023-08-31T09:14:13;5.93;;;3.03;;
4198;SDS011;2113;50.946;14.610;2023-08-31T09:16:44;6.35;;;2.92;;
4198;SDS011;2113;50.946;14.610;2023-08-31T09:19:22;5.30;;;2.70;;
4198;SDS011;2113;50.946;14.610;2023-08-31T09:21:52;4.43;;;3.08;;
4198;SDS011;2113;50.946;14.610;2023-08-31T09:24:23;4.82;;;2.85;;
4198;SDS011;2113;50.946;14.610;2023-08-31T09:26:53;4.97;;;2.90;;
4198;SDS011;2113;50.946;14.610;2023-08-31T09:29:23;6.03;;;2.88;;
4198;SDS011;2113;50.946;14.610;2023-08-31T09:31:52;5.15;;;3.22;;
4198;SDS011;2113;50.946;14.610;2023-08-31T09:34:21;4.53;;;3.22;;
4198;SDS011;2113;50.946;14.610;2023-08-31T09:37:03;4.60;;;2.90;;
4198;SDS011;2113;50.946;14.610;2023-08-31T09:39:35;6.32;;;2.22;;
4198;SDS011;2113;50.946;14.610;2023-08-31T09:42:04;5.28;;;2.53;;
4198;SDS011;2113;50.946;14.610;2023-08-31T09:44:33;7.45;;;3.10;;
4198;SDS011;2113;50.946;14.610;2023-08-31T09:47:01;5.28;;;2.75;;
4198;SDS011;2113;50.946;14.610;2023-08-31T09:49:33;3.70;;;2.40;;
4198;SDS011;2113;50.946;14.610;2023-08-31T09:52:02;5.85;;;2.80;;
4198;SDS011;2113;50.946;14.610;2023-08-31T09:54:32;3.88;;;2.30;;
4198;SDS011;2113;50.946;14.610;2023-08-31T09:57:03;6.05;;;2.40;;
4198;SDS011;2113;50.946;14.610;2023-08-31T09:59:33;6.30;;;2.70;;
4198;SDS011;2113;50.946;14.610;2023-08-31T10:02:02;4.35;;;2.40;;
4198;SDS011;2113;50.946;14.610;2023-08-31T10:04:34;5.15;;;2.65;;
4198;SDS011;2113;50.946;14.610;2023-08-31T10:07:04;5.38;;;2.60;;
4198;SDS011;2113;50.946;14.610;2023-08-31T10:09:33;4.43;;;2.05;;
4198;SDS011;2113;50.946;14.610;2023-08-31T10:12:04;7.50;;;2.80;;
4198;SDS011;2113;50.946;14.610;2023-08-31T10:14:33;4.53;;;2.30;;
4198;SDS011;2113;50.946;14.610;2023-08-31T10:17:06;6.68;;;2.47;;
4198;SDS011;2113;50.946;14.610;2023-08-31T10:19:37;4.28;;;2.60;;
4198;SDS011;2113;50.946;14.610;2023-08-31T10:22:06;3.53;;;2.05;;
4198;SDS011;2113;50.946;14.610;2023-08-31T10:27:24;3.38;;;1.85;;
4198;SDS011;2113;50.946;14.610;2023-08-31T10:29:53;7.47;;;2.13;;
4198;SDS011;2113;50.946;14.610;2023-08-31T10:32:22;4.05;;;1.50;;
4198;SDS011;2113;50.946;14.610;2023-08-31T10:35:08;2.45;;;1.38;;
4198;SDS011;2113;50.946;14.610;2023-08-31T10:37:39;3.40;;;1.70;;
4198;SDS011;2113;50.946;14.610;2023-08-31T10:40:08;6.35;;;2.05;;
4198;SDS011;2113;50.946;14.610;2023-08-31T10:42:42;3.83;;;1.75;;
4198;SDS011;2113;50.946;14.610;2023-08-31T10:45:11;3.90;;;1.95;;
4198;SDS011;2113;50.946;14.610;2023-08-31T10:47:40;3.53;;;1.58;;
4198;SDS011;2113;50.946;14.610;2023-08-31T10:50:17;3.42;;;1.80;;
4198;SDS011;2113;50.946;14.610;2023-08-31T10:52:47;4.40;;;2.10;;
4198;SDS011;2113;50.946;14.610;2023-08-31T10:55:16;3.67;;;1.55;;
4198;SDS011;2113;50.946;14.610;2023-08-31T10:57:44;3.05;;;1.75;;
4198;SDS011;2113;50.946;14.610;2023-08-31T11:00:13;4.25;;;1.70;;
4198;SDS011;2113;50.946;14.610;2023-08-31T11:03:04;3.55;;;1.65;;
4198;SDS011;2113;50.946;14.610;2023-08-31T11:05:34;3.00;;;1.50;;
4198;SDS011;2113;50.946;14.610;2023-08-31T11:08:02;3.95;;;1.80;;
4198;SDS011;2113;50.946;14.610;2023-08-31T11:10:31;3.28;;;1.65;;
4198;SDS011;2113;50.946;14.610;2023-08-31T11:13:00;2.90;;;1.23;;
4198;SDS011;2113;50.946;14.610;2023-08-31T11:15:29;12.65;;;1.65;;
4198;SDS011;2113;50.946;14.610;2023-08-31T11:17:58;2.65;;;1.40;;
4198;SDS011;2113;50.946;14.610;2023-08-31T11:20:29;2.88;;;1.55;;
4198;SDS011;2113;50.946;14.610;2023-08-31T11:22:59;5.05;;;1.70;;
4198;SDS011;2113;50.946;14.610;2023-08-31T11:25:29;4.63;;;2.22;;
4198;SDS011;2113;50.946;14.610;2023-08-31T11:27:59;4.57;;;1.75;;
4198;SDS011;2113;50.946;14.610;2023-08-31T11:30:31;2.45;;;1.30;;
4198;SDS011;2113;50.946;14.610;2023-08-31T11:33:01;5.35;;;1.65;;
4198;SDS011;2113;50.946;14.610;2023-08-31T11:35:33;2.50;;;1.35;;
4198;SDS011;2113;50.946;14.610;2023-08-31T11:38:04;3.20;;;1.85;;
4198;SDS011;2113;50.946;14.610;2023-08-31T11:40:33;3.92;;;1.92;;
4198;SDS011;2113;50.946;14.610;2023-08-31T11:43:04;6.38;;;1.38;;
4198;SDS011;2113;50.946;14.610;2023-08-31T11:46:12;4.75;;;1.90;;
4198;SDS011;2113;50.946;14.610;2023-08-31T11:48:42;4.15;;;1.50;;
4198;SDS011;2113;50.946;14.610;2023-08-31T11:55:54;3.00;;;1.40;;
4198;SDS011;2113;50.946;14.610;2023-08-31T11:59:50;2.40;;;1.30;;
4198;SDS011;2113;50.946;14.610;2023-08-31T12:02:20;4.63;;;1.60;;
4198;SDS011;2113;50.946;14.610;2023-08-31T12:04:52;3.35;;;1.75;;
4198;SDS011;2113;50.946;14.610;2023-08-31T12:07:29;2.22;;;1.30;;
4198;SDS011;2113;50.946;14.610;2023-08-31T12:10:02;3.80;;;1.05;;
4198;SDS011;2113;50.946;14.610;2023-08-31T12:12:32;3.00;;;1.50;;
4198;SDS011;2113;50.946;14.610;2023-08-31T12:15:02;2.35;;;1.00;;
4198;SDS011;2113;50.946;14.610;2023-08-31T12:17:36;5.38;;;1.40;;
4198;SDS011;2113;50.946;14.610;2023-08-31T12:20:06;2.85;;;1.10;;
4198;SDS011;2113;50.946;14.610;2023-08-31T12:22:36;4.20;;;1.20;;
4198;SDS011;2113;50.946;14.610;2023-08-31T12:25:05;2.58;;;1.40;;
4198;SDS011;2113;50.946;14.610;2023-08-31T12:27:36;3.35;;;1.35;;
4198;SDS011;2113;50.946;14.610;2023-08-31T12:30:05;3.70;;;1.85;;
4198;SDS011;2113;50.946;14.610;2023-08-31T12:32:36;6.07;;;1.50;;
4198;SDS011;2113;50.946;14.610;2023-08-31T12:35:07;2.47;;;1.50;;
4198;SDS011;2113;50.946;14.610;2023-08-31T12:37:36;4.68;;;1.30;;
4198;SDS011;2113;50.946;14.610;2023-08-31T12:40:06;3.90;;;1.52;;
4198;SDS011;2113;50.946;14.610;2023-08-31T12:42:38;3.53;;;1.58;;
4198;SDS011;2113;50.946;14.610;2023-08-31T12:45:07;3.72;;;1.67;;
4198;SDS011;2113;50.946;14.610;2023-08-31T12:47:36;6.13;;;2.10;;
4198;SDS011;2113;50.946;14.610;2023-08-31T12:50:05;5.85;;;2.50;;
4198;SDS011;2113;50.946;14.610;2023-08-31T12:52:34;4.32;;;2.10;;
4198;SDS011;2113;50.946;14.610;2023-08-31T12:55:03;6.38;;;2.42;;
4198;SDS011;2113;50.946;14.610;2023-08-31T12:57:31;9.05;;;4.70;;
4198;SDS011;2113;50.946;14.610;2023-08-31T13:00:02;8.45;;;2.92;;
4198;SDS011;2113;50.946;14.610;2023-08-31T13:02:32;3.55;;;2.55;;
4198;SDS011;2113;50.946;14.610;2023-08-31T13:05:01;3.97;;;2.72;;
4198;SDS011;2113;50.946;14.610;2023-08-31T13:07:32;7.47;;;2.92;;
4198;SDS011;2113;50.946;14.610;2023-08-31T13:10:01;4.80;;;2.90;;
4198;SDS011;2113;50.946;14.610;2023-08-31T13:12:31;3.95;;;2.35;;
4198;SDS011;2113;50.946;14.610;2023-08-31T13:15:01;5.93;;;2.28;;
4198;SDS011;2113;50.946;14.610;2023-08-31T13:17:31;4.40;;;2.35;;
4198;SDS011;2113;50.946;14.610;2023-08-31T13:20:00;3.70;;;2.30;;
4198;SDS011;2113;50.946;14.610;2023-08-31T13:22:30;4.57;;;2.65;;
4198;SDS011;2113;50.946;14.610;2023-08-31T13:24:58;8.15;;;3.22;;
4198;SDS011;2113;50.946;14.610;2023-08-31T13:27:27;4.40;;;2.20;;
4198;SDS011;2113;50.946;14.610;2023-08-31T13:29:56;4.95;;;2.10;;
4198;SDS011;2113;50.946;14.610;2023-08-31T13:32:26;5.38;;;2.00;;
4198;SDS011;2113;50.946;14.610;2023-08-31T13:34:54;6.03;;;2.08;;
4198;SDS011;2113;50.946;14.610;2023-08-31T13:37:23;5.90;;;2.10;;
4198;SDS011;2113;50.946;14.610;2023-08-31T13:39:51;4.70;;;1.77;;
4198;SDS011;2113;50.946;14.610;2023-08-31T13:42:20;3.97;;;1.60;;
4198;SDS011;2113;50.946;14.610;2023-08-31T13:44:48;2.88;;;1.63;;
4198;SDS011;2113;50.946;14.610;2023-08-31T13:47:17;3.75;;;1.67;;
4198;SDS011;2113;50.946;14.610;2023-08-31T13:49:47;3.53;;;1.95;;
4198;SDS011;2113;50.946;14.610;2023-08-31T13:52:15;3.95;;;1.83;;
4198;SDS011;2113;50.946;14.610;2023-08-31T13:54:44;3.25;;;1.90;;
4198;SDS011;2113;50.946;14.610;2023-08-31T13:57:12;3.15;;;1.60;;
4198;SDS011;2113;50.946;14.610;2023-08-31T13:59:44;3.83;;;2.00;;
4198;SDS011;2113;50.946;14.610;2023-08-31T14:02:13;6.43;;;3.00;;
4198;SDS011;2113;50.946;14.610;2023-08-31T14:04:43;5.43;;;2.13;;
4198;SDS011;2113;50.946;14.610;2023-08-31T14:07:13;6.32;;;2.55;;
4198;SDS011;2113;50.946;14.610;2023-08-31T14:09:41;4.28;;;2.63;;
4198;SDS011;2113;50.946;14.610;2023-08-31T14:12:10;3.05;;;1.83;;
4198;SDS011;2113;50.946;14.610;2023-08-31T14:14:38;4.55;;;2.50;;
4198;SDS011;2113;50.946;14.610;2023-08-31T14:17:08;2.90;;;1.60;;
4198;SDS011;2113;50.946;14.610;2023-08-31T14:19:37;2.53;;;1.38;;
4198;SDS011;2113;50.946;14.610;2023-08-31T14:22:06;2.92;;;1.30;;
4198;SDS011;2113;50.946;14.610;2023-08-31T14:24:38;4.18;;;1.60;;
4198;SDS011;2113;50.946;14.610;2023-08-31T14:27:06;3.95;;;1.98;;
4198;SDS011;2113;50.946;14.610;2023-08-31T14:29:36;3.20;;;1.38;;
4198;SDS011;2113;50.946;14.610;2023-08-31T14:35:36;4.45;;;1.77;;
4198;SDS011;2113;50.946;14.610;2023-08-31T14:38:05;3.13;;;1.70;;
4198;SDS011;2113;50.946;14.610;2023-08-31T14:40:35;2.50;;;1.27;;
4198;SDS011;2113;50.946;14.610;2023-08-31T14:43:08;3.78;;;1.58;;
4198;SDS011;2113;50.946;14.610;2023-08-31T14:45:40;4.18;;;2.38;;
4198;SDS011;2113;50.946;14.610;2023-08-31T14:48:10;3.35;;;1.95;;
4198;SDS011;2113;50.946;14.610;2023-08-31T14:50:41;2.83;;;1.52;;
4198;SDS011;2113;50.946;14.610;2023-08-31T14:53:10;2.90;;;1.67;;
4198;SDS011;2113;50.946;14.610;2023-08-31T14:55:48;2.80;;;1.63;;
4198;SDS011;2113;50.946;14.610;2023-08-31T14:58:17;3.03;;;1.85;;
4198;SDS011;2113;50.946;14.610;2023-08-31T15:00:46;3.53;;;1.52;;
4198;SDS011;2113;50.946;14.610;2023-08-31T15:03:15;4.75;;;2.03;;
4198;SDS011;2113;50.946;14.610;2023-08-31T15:05:52;4.72;;;2.00;;
4198;SDS011;2113;50.946;14.610;2023-08-31T15:08:21;3.92;;;1.70;;
4198;SDS011;2113;50.946;14.610;2023-08-31T15:11:04;4.78;;;2.70;;
4198;SDS011;2113;50.946;14.610;2023-08-31T15:13:33;3.92;;;2.20;;
4198;SDS011;2113;50.946;14.610;2023-08-31T15:16:01;3.75;;;2.28;;
4198;SDS011;2113;50.946;14.610;2023-08-31T15:18:29;3.25;;;1.67;;
4198;SDS011;2113;50.946;14.610;2023-08-31T15:20:58;4.05;;;1.75;;
4198;SDS011;2113;50.946;14.610;2023-08-31T15:23:27;4.35;;;1.70;;
4198;SDS011;2113;50.946;14.610;2023-08-31T15:26:01;3.53;;;1.52;;
4198;SDS011;2113;50.946;14.610;2023-08-31T15:28:32;3.13;;;1.58;;
4198;SDS011;2113;50.946;14.610;2023-08-31T15:31:00;4.30;;;1.40;;